Time;durP1;ratioP1;P1;durP2;ratioP2;P2;SDS_P1;SDS_P2;PMS_P1;PMS_P2;Temp;Humidity;BMP_temperature;BMP_pressure;BME280_temperature;BME280_humidity;BME280_pressure;Samples;Min_cycle;Max_cycle;Signal;HPM_P1;HPM_P2
2022/11/06 00:01:12;;;;;;;40.88;24.35;;;;;;;3.28;100.00;100079.25;4897477;29;20031;-83
2022/11/06 00:03:38;;;;;;;51.55;30.38;;;;;;;3.29;100.00;100074.09;4895847;29;20032;-82
2022/11/06 00:08:50;;;;;;;48.15;31.15;;;;;;;3.26;100.00;100074.13;4897101;29;20044;-83
2022/11/06 00:11:17;;;;;;;44.72;29.38;;;;;;;3.28;100.00;100068.94;4897349;29;20025;-83
2022/11/06 00:13:43;;;;;;;50.53;29.77;;;;;;;3.22;100.00;100060.44;4897030;29;20045;-83
2022/11/06 00:16:11;;;;;;;44.10;27.08;;;;;;;3.28;100.00;100079.25;4897199;29;20115;-83
2022/11/06 00:18:38;;;;;;;44.08;27.98;;;;;;;3.19;100.00;100070.75;4896880;29;20417;-82
2022/11/06 00:21:16;;;;;;;45.97;29.30;;;;;;;3.23;100.00;100074.16;4895626;29;20072;-83
2022/11/06 00:23:43;;;;;;;43.05;29.95;;;;;;;3.21;100.00;100083.63;4896781;29;20071;-83
2022/11/06 00:26:11;;;;;;;44.08;28.95;;;;;;;3.15;100.00;100073.38;4895736;29;20421;-82
2022/11/06 00:28:37;;;;;;;44.22;28.00;;;;;;;3.15;100.00;100081.09;4896712;29;20111;-83
2022/11/06 00:31:07;;;;;;;44.75;27.30;;;;;;;3.10;100.00;100068.25;4896994;29;20024;-83
2022/11/06 00:33:33;;;;;;;47.97;28.00;;;;;;;3.12;100.00;100081.09;4896946;29;20357;-83
2022/11/06 00:36:05;;;;;;;45.28;29.52;;;;;;;2.99;100.00;100065.81;4895390;29;20024;-83
2022/11/06 00:38:31;;;;;;;47.75;28.42;;;;;;;3.02;100.00;100070.06;4895699;29;20028;-83
2022/11/06 00:41:00;;;;;;;49.58;29.15;;;;;;;3.05;100.00;100087.19;4894080;29;20405;-83
2022/11/06 00:43:25;;;;;;;44.03;29.17;;;;;;;3.05;100.00;100090.63;4895414;29;20385;-82
2022/11/06 00:45:51;;;;;;;44.47;30.75;;;;;;;3.06;100.00;100087.16;4898223;29;20037;-83
2022/11/06 00:48:16;;;;;;;52.75;34.22;;;;;;;3.00;100.00;100082.09;4882545;29;20460;-82
2022/11/06 00:50:41;;;;;;;50.88;35.55;;;;;;;3.05;100.00;100092.34;4897974;29;20040;-83
2022/11/06 00:53:07;;;;;;;55.17;34.97;;;;;;;2.93;100.00;100077.84;4898571;29;20111;-83
2022/11/06 00:55:32;;;;;;;47.47;30.75;;;;;;;2.98;100.00;100094.94;4898524;29;20077;-83
2022/11/06 00:57:57;;;;;;;50.50;28.95;;;;;;;2.97;100.00;100100.13;4898023;29;20435;-83
2022/11/06 01:00:23;;;;;;;42.75;26.30;;;;;;;2.91;100.00;100089.91;4898177;29;20149;-82
2022/11/06 01:02:48;;;;;;;38.75;26.35;;;;;;;2.90;100.00;100099.31;4882263;29;20035;-82
2022/11/06 01:05:14;;;;;;;46.08;27.25;;;;;;;2.88;100.00;100090.75;4882720;29;20115;-83
2022/11/06 01:07:40;;;;;;;41.03;27.10;;;;;;;2.91;100.00;100088.19;4882114;29;20036;-83
2022/11/06 01:10:06;;;;;;;40.17;26.95;;;;;;;2.91;100.00;100095.03;4898135;29;20485;-83
2022/11/06 01:12:34;;;;;;;47.65;31.00;;;;;;;2.88;100.00;100090.75;4899839;29;20040;-83
2022/11/06 01:14:59;;;;;;;43.90;25.88;;;;;;;2.89;100.00;100094.19;4900057;29;20027;-82
2022/11/06 01:17:25;;;;;;;39.67;25.13;;;;;;;2.89;100.00;100089.03;4898854;29;20032;-83
2022/11/06 01:19:50;;;;;;;38.72;25.23;;;;;;;2.81;100.00;100065.09;4900141;29;20532;-83
2022/11/06 01:22:16;;;;;;;36.53;23.55;;;;;;;2.75;100.00;100066.00;4899917;29;20500;-83
2022/11/06 01:24:42;;;;;;;36.20;21.48;;;;;;;2.82;100.00;100077.94;4900176;29;20056;-83
2022/11/06 01:27:08;;;;;;;38.03;20.52;;;;;;;2.81;100.00;100075.38;4900094;29;20033;-83
2022/11/06 01:29:33;;;;;;;30.73;19.88;;;;;;;2.77;100.00;100076.28;4898708;29;20028;-83
2022/11/06 01:31:58;;;;;;;39.05;21.58;;;;;;;2.72;100.00;100072.03;4898438;29;20084;-82
2022/11/06 01:34:24;;;;;;;37.08;22.17;;;;;;;2.70;100.00;100075.50;4899959;29;20028;-83
2022/11/06 01:36:50;;;;;;;37.03;21.52;;;;;;;2.73;100.00;100085.72;4898553;29;20439;-83
2022/11/06 01:39:15;;;;;;;32.67;22.13;;;;;;;2.72;100.00;100079.75;4898652;29;20032;-82
2022/11/06 01:41:47;;;;;;;33.88;20.30;;;;;;;2.70;100.00;100081.47;4899981;29;20025;-82
2022/11/06 01:44:13;;;;;;;28.65;19.25;;;;;;;2.76;100.00;100088.28;4899852;29;20032;-83
2022/11/06 01:46:38;;;;;;;29.17;19.92;;;;;;;2.76;100.00;100085.72;4899748;29;20039;-82
2022/11/06 01:49:09;;;;;;;33.22;20.63;;;;;;;2.76;100.00;100085.72;4899809;29;20432;-83
2022/11/06 01:51:40;;;;;;;31.05;20.05;;;;;;;2.74;100.00;100090.03;4898590;29;20036;-83
2022/11/06 01:54:07;;;;;;;31.20;19.38;;;;;;;2.72;100.00;100095.16;4900280;29;20064;-83
2022/11/06 01:56:35;;;;;;;31.77;19.25;;;;;;;2.68;100.00;100088.34;4897531;29;20284;-82
2022/11/06 01:59:02;;;;;;;37.80;19.98;;;;;;;2.66;100.00;100084.94;4898097;29;20540;-83
2022/11/06 02:01:27;;;;;;;31.48;19.35;;;;;;;2.60;100.00;100087.53;4899493;29;20364;-83
2022/11/06 02:04:23;;;;;;;29.45;19.10;;;;;;;2.61;100.00;100091.84;4898227;29;20029;-82
2022/11/06 02:06:50;;;;;;;30.70;19.75;;;;;;;2.62;100.00;100095.28;4859547;29;20038;-83
2022/11/06 02:09:16;;;;;;;36.60;20.98;;;;;;;2.54;100.00;100087.59;4844331;29;20089;-82
2022/11/06 02:11:50;;;;;;;36.72;19.83;;;;;;;2.58;100.00;100086.72;4859617;29;20084;-83
2022/11/06 02:14:31;;;;;;;31.42;18.67;;;;;;;2.61;100.00;100088.41;4859646;29;20036;-83
2022/11/06 02:17:27;;;;;;;33.53;19.67;;;;;;;2.53;100.00;100078.19;4859648;29;20094;-83
2022/11/06 02:20:19;;;;;;;36.47;20.92;;;;;;;2.56;100.00;100092.72;4843992;29;20057;-83
2022/11/06 02:23:04;;;;;;;35.88;19.45;;;;;;;2.56;100.00;100095.28;4843786;29;20033;-83
2022/11/06 02:25:41;;;;;;;28.23;18.80;;;;;;;2.53;100.00;100085.91;4859517;29;20045;-83
2022/11/06 02:28:20;;;;;;;28.33;18.50;;;;;;;2.43;100.00;100069.66;4859503;29;20472;-83
2022/11/06 02:30:47;;;;;;;25.70;18.40;;;;;;;2.43;100.00;100084.25;4859078;29;20046;-83
2022/11/06 02:33:23;;;;;;;25.55;18.05;;;;;;;2.41;100.00;100073.97;4859618;29;20037;-83
2022/11/06 02:35:56;;;;;;;28.27;17.63;;;;;;;2.45;100.00;100093.66;4843553;29;20041;-82
2022/11/06 02:38:53;;;;;;;22.27;16.42;;;;;;;2.40;100.00;100084.25;4843765;29;20026;-83
2022/11/06 02:41:28;;;;;;;27.75;17.02;;;;;;;2.31;100.00;100079.19;4789134;29;20049;-83
2022/11/06 02:43:56;;;;;;;24.98;16.52;;;;;;;2.36;100.00;100088.59;4839024;29;20120;-83
2022/11/06 02:46:35;;;;;;;25.92;18.02;;;;;;;2.32;100.00;100086.00;4859098;29;20106;-83
2022/11/06 02:49:29;;;;;;;25.92;17.95;;;;;;;2.31;100.00;100084.31;4858699;29;20029;-83
2022/11/06 02:52:03;;;;;;;28.70;18.38;;;;;;;2.31;100.00;100092.03;4806722;29;20136;-83
2022/11/06 02:54:33;;;;;;;27.63;17.65;;;;;;;2.30;100.00;100092.91;4822061;29;20062;-83
2022/11/06 02:57:04;;;;;;;37.45;19.38;;;;;;;2.30;100.00;100087.75;4822267;29;20129;-83
2022/11/06 02:59:40;;;;;;;26.90;17.45;;;;;;;2.24;100.00;100086.09;4822102;29;20039;-83
2022/11/06 03:02:11;;;;;;;23.13;16.95;;;;;;;2.20;100.00;100079.25;4821765;29;20060;-83
2022/11/06 03:05:09;;;;;;;29.35;17.85;;;;;;;2.25;100.00;100085.22;4821944;29;20038;-83
2022/11/06 03:07:53;;;;;;;29.25;18.58;;;;;;;2.22;100.00;100083.50;4767886;30;20039;-83
2022/11/06 03:10:19;;;;;;;27.02;17.83;;;;;;;2.23;100.00;100081.78;4767792;30;20628;-83
2022/11/06 03:13:00;;;;;;;32.78;18.83;;;;;;;2.22;100.00;100090.38;4767654;30;20085;-83
2022/11/06 03:15:33;;;;;;;34.58;19.33;;;;;;;2.20;100.00;100087.81;4767830;30;20043;-83
2022/11/06 03:18:05;;;;;;;36.03;21.48;;;;;;;2.20;100.00;100081.81;4756375;30;20151;-82
2022/11/06 03:20:35;;;;;;;37.60;19.63;;;;;;;2.18;100.00;100081.81;4749808;30;20111;-83
2022/11/06 03:23:43;;;;;;;31.25;19.42;;;;;;;2.30;100.00;100077.47;4749706;30;20110;-83
2022/11/06 03:26:17;;;;;;;31.75;19.48;;;;;;;2.33;100.00;100075.75;4714577;30;20096;-83
2022/11/06 03:29:12;;;;;;;28.63;18.40;;;;;;;2.42;100.00;100077.41;4736395;30;20110;-83
2022/11/06 03:32:06;;;;;;;214.07;154.75;;;;;;;2.49;100.00;100076.50;4732020;30;20048;-83
2022/11/06 03:34:40;;;;;;;65.57;38.55;;;;;;;2.47;100.00;100073.91;4732285;30;20043;-83
2022/11/06 03:37:12;;;;;;;75.32;46.80;;;;;;;2.39;100.00;100070.53;4732097;30;20168;-82
2022/11/06 03:39:45;;;;;;;81.47;52.85;;;;;;;2.49;100.00;100084.22;4717486;30;20099;-83
2022/11/06 03:42:14;;;;;;;93.97;55.58;;;;;;;2.45;100.00;100073.09;4731813;30;20051;-82
2022/11/06 03:44:50;;;;;;;75.85;46.67;;;;;;;2.51;100.00;100085.03;4748299;30;20400;-83
2022/11/06 03:47:18;;;;;;;67.78;42.08;;;;;;;2.52;100.00;100086.75;4785146;30;20027;-83
2022/11/06 03:49:52;;;;;;;71.80;44.70;;;;;;;2.48;100.00;100087.63;4785000;30;20031;-83
2022/11/06 03:52:32;;;;;;;73.63;47.55;;;;;;;2.48;100.00;100077.34;4785272;30;20157;-83
2022/11/06 03:55:08;;;;;;;70.70;46.30;;;;;;;2.46;100.00;100079.09;4784777;30;20077;-83
2022/11/06 03:57:49;;;;;;;57.28;39.63;;;;;;;2.38;100.00;100068.00;4785104;30;20123;-83
2022/11/06 04:00:16;;;;;;;50.45;32.50;;;;;;;2.41;100.00;100081.69;4784983;30;20526;-82
2022/11/06 04:02:45;;;;;;;41.42;26.33;;;;;;;2.40;100.00;100076.53;4784870;30;20045;-82
2022/11/06 04:05:22;;;;;;;36.85;22.95;;;;;;;2.41;100.00;100079.13;4769694;30;20038;-83
2022/11/06 04:16:12;;;;;;;42.30;25.35;;;;;;;2.32;100.00;100084.31;4878420;29;20043;-83
2022/11/06 04:18:38;;;;;;;48.58;27.60;;;;;;;2.22;100.00;100072.38;4861336;29;20021;-83
2022/11/06 04:21:29;;;;;;;40.92;25.05;;;;;;;2.31;100.00;100086.88;4869954;29;20434;-83
2022/11/06 04:27:19;;;;;;;43.35;22.65;;;;;;;2.28;100.00;100086.94;4839070;29;20074;-82
2022/11/06 04:30:07;;;;;;;38.88;21.10;;;;;;;2.27;100.00;100092.91;4838886;29;20434;-82
2022/11/06 04:33:05;;;;;;;39.53;20.95;;;;;;;2.20;100.00;100090.38;4839104;29;20219;-83
2022/11/06 04:35:48;;;;;;;36.67;20.73;;;;;;;2.16;100.00;100086.13;4838921;29;20034;-82
2022/11/06 04:38:38;;;;;;;48.85;28.30;;;;;;;2.14;100.00;100082.69;4823417;29;20030;-83
2022/11/06 04:41:25;;;;;;;51.38;28.30;;;;;;;2.13;100.00;100083.56;4823404;29;20578;-83
2022/11/06 04:43:59;;;;;;;51.05;30.90;;;;;;;2.07;100.00;100075.06;4838651;29;20423;-83
2022/11/06 04:46:45;;;;;;;51.85;29.77;;;;;;;2.10;100.00;100083.56;4839129;29;20044;-83
2022/11/06 04:49:13;;;;;;;45.55;30.58;;;;;;;2.02;100.00;100080.19;4838877;29;20455;-83
2022/11/06 04:51:39;;;;;;;44.55;29.35;;;;;;;2.05;100.00;100093.03;4823661;29;20030;-83
2022/11/06 04:54:07;;;;;;;42.90;27.15;;;;;;;2.00;100.00;100087.91;4838551;29;20042;-83
2022/11/06 04:56:34;;;;;;;41.28;26.77;;;;;;;2.04;100.00;100082.75;4838786;29;20030;-83
2022/11/06 04:59:00;;;;;;;40.05;22.58;;;;;;;2.05;100.00;100075.03;4823253;29;20033;-83
2022/11/06 05:01:26;;;;;;;36.83;23.23;;;;;;;2.03;100.00;100078.50;4877078;29;20390;-83
2022/11/06 05:03:51;;;;;;;27.77;20.02;;;;;;;1.98;100.00;100079.38;4879764;29;20429;-82
2022/11/06 05:06:17;;;;;;;30.45;21.00;;;;;;;1.92;100.00;100069.09;4896609;29;20025;-83
2022/11/06 05:08:43;;;;;;;29.00;18.73;;;;;;;1.98;100.00;100081.06;4896530;29;20437;-82
2022/11/06 05:11:08;;;;;;;28.15;19.15;;;;;;;1.92;100.00;100060.56;4896436;29;20028;-83
2022/11/06 05:13:34;;;;;;;28.77;18.63;;;;;;;1.99;100.00;100077.66;4896952;29;20141;-83
2022/11/06 05:16:00;;;;;;;35.03;20.50;;;;;;;1.98;100.00;100073.34;4879575;29;20023;-83
2022/11/06 05:18:26;;;;;;;33.03;20.13;;;;;;;1.95;100.00;100068.25;4879640;29;20045;-83
2022/11/06 05:23:37;;;;;;;35.35;21.52;;;;;;;1.87;100.00;100067.44;4896683;29;20108;-83
2022/11/06 05:26:03;;;;;;;40.03;24.60;;;;;;;1.80;100.00;100058.03;4896363;29;20024;-83
2022/11/06 05:28:29;;;;;;;44.00;24.27;;;;;;;1.74;100.00;100043.53;4896858;29;20060;-83
2022/11/06 05:30:54;;;;;;;39.10;25.02;;;;;;;1.78;100.00;100052.91;4880722;29;20056;-83
2022/11/06 05:33:20;;;;;;;39.75;24.60;;;;;;;1.75;100.00;100052.94;4883052;29;20083;-83
2022/11/06 05:35:45;;;;;;;36.40;24.02;;;;;;;1.70;100.00;100052.09;4899966;29;20444;-83
2022/11/06 05:38:11;;;;;;;34.85;21.15;;;;;;;1.77;100.00;100069.19;4900130;29;20025;-83
2022/11/06 05:40:36;;;;;;;29.02;19.30;;;;;;;1.71;100.00;100064.91;4883113;29;20483;-83
2022/11/06 05:43:02;;;;;;;28.40;20.88;;;;;;;1.70;100.00;100060.66;4899684;29;20108;-82
2022/11/06 05:45:27;;;;;;;32.83;20.30;;;;;;;1.73;100.00;100073.50;4882918;29;20088;-83
2022/11/06 05:47:52;;;;;;;30.50;21.30;;;;;;;1.72;100.00;100070.91;4899796;29;20099;-83
2022/11/06 05:50:18;;;;;;;42.30;26.85;;;;;;;1.65;100.00;100066.66;4899330;29;20032;-83
2022/11/06 05:52:43;;;;;;;34.03;21.85;;;;;;;1.71;100.00;100074.34;4899823;29;20490;-83
2022/11/06 05:55:09;;;;;;;32.03;21.27;;;;;;;1.74;100.00;100066.63;4899516;29;20059;-83
2022/11/06 05:57:35;;;;;;;55.47;36.53;;;;;;;1.73;100.00;100067.50;4899650;29;20465;-83
2022/11/06 06:00:00;;;;;;;56.55;37.08;;;;;;;1.78;100.00;100059.78;4882327;29;20024;-83
2022/11/06 06:02:26;;;;;;;43.05;29.95;;;;;;;1.78;100.00;100065.75;4899501;29;20024;-83
2022/11/06 06:04:51;;;;;;;51.35;31.80;;;;;;;1.73;100.00;100059.78;4882502;29;20028;-83
2022/11/06 06:07:16;;;;;;;49.53;31.98;;;;;;;1.83;100.00;100069.16;4899400;29;20388;-83
2022/11/06 06:09:42;;;;;;;57.55;33.97;;;;;;;1.72;100.00;100047.78;4899255;29;20036;-83
2022/11/06 06:12:11;;;;;;;52.83;32.97;;;;;;;1.83;100.00;100064.03;4882381;29;20037;-83
2022/11/06 06:14:36;;;;;;;52.22;34.03;;;;;;;1.89;100.00;100076.81;4899254;29;20051;-83
2022/11/06 06:17:01;;;;;;;54.00;33.55;;;;;;;1.97;100.00;100079.34;4898941;29;20457;-83
2022/11/06 06:19:27;;;;;;;57.45;36.08;;;;;;;1.92;100.00;100074.25;4899145;29;20033;-83
2022/11/06 06:21:52;;;;;;;67.10;38.28;;;;;;;2.00;100.00;100084.50;4882292;29;20092;-82
2022/11/06 06:24:17;;;;;;;60.85;37.63;;;;;;;1.96;100.00;100072.53;4898773;29;20048;-82
2022/11/06 06:26:43;;;;;;;63.75;38.40;;;;;;;2.12;100.00;100086.16;4882240;29;20024;-82
2022/11/06 06:29:08;;;;;;;63.13;40.58;;;;;;;2.16;100.00;100083.56;4898770;29;20378;-83
2022/11/06 06:31:34;;;;;;;71.22;40.60;;;;;;;2.34;100.00;100089.44;4881972;29;20038;-83
2022/11/06 06:33:59;;;;;;;69.28;41.63;;;;;;;2.56;100.00;100093.56;4881732;29;20044;-82
2022/11/06 06:36:24;;;;;;;74.07;40.30;;;;;;;2.80;100.00;100086.56;4898806;29;20081;-82
2022/11/06 06:38:50;;;;;;;74.25;43.33;;;;;;;2.93;100.00;100081.28;4881844;29;20028;-82
2022/11/06 06:41:15;;;;;;;84.32;47.72;;;;;;;2.98;100.00;100089.81;4898279;29;20041;-82
2022/11/06 06:43:40;;;;;;;88.82;49.85;;;;;;;3.01;100.00;100094.09;4881904;29;20044;-82
2022/11/06 06:46:06;;;;;;;78.47;44.40;;;;;;;3.03;100.00;100094.06;4898432;29;20413;-82
2022/11/06 06:48:32;;;;;;;71.03;43.13;;;;;;;3.08;100.00;100095.75;4881853;29;20021;-83
2022/11/06 06:50:59;;;;;;;77.22;44.35;;;;;;;3.19;100.00;100088.75;4881323;29;20398;-83
2022/11/06 06:53:24;;;;;;;75.10;41.47;;;;;;;3.86;100.00;100107.78;4881487;29;20032;-82
2022/11/06 06:55:50;;;;;;;72.15;42.53;;;;;;;4.66;100.00;100101.56;4881662;29;20036;-83
2022/11/06 06:58:16;;;;;;;70.75;43.72;;;;;;;5.02;100.00;100083.78;4881399;29;20031;-82
2022/11/06 07:00:41;;;;;;;66.18;41.25;;;;;;;5.32;100.00;100095.31;4898410;29;20071;-83
2022/11/06 07:03:06;;;;;;;39.92;23.35;;;;;;;5.52;100.00;100108.72;4898082;29;20025;-83
2022/11/06 07:05:32;;;;;;;52.78;29.10;;;;;;;5.76;100.00;100104.78;4881346;29;20036;-82
2022/11/06 07:07:57;;;;;;;49.28;29.38;;;;;;;5.97;100.00;100103.53;4881412;29;20024;-83
2022/11/06 07:10:23;;;;;;;52.55;30.67;;;;;;;6.00;100.00;100096.56;4881037;29;20025;-83
2022/11/06 07:12:48;;;;;;;46.00;26.80;;;;;;;5.94;100.00;100111.34;4881397;29;20023;-83
2022/11/06 07:15:14;;;;;;;32.63;22.42;;;;;;;5.85;100.00;100096.00;4880939;29;20036;-83
2022/11/06 07:17:39;;;;;;;39.78;25.60;;;;;;;6.04;100.00;100099.97;4898108;29;20028;-83
2022/11/06 07:20:05;;;;;;;36.90;23.27;;;;;;;6.08;100.00;100099.00;4897708;29;20383;-83
2022/11/06 07:22:31;;;;;;;38.85;23.77;;;;;;;6.14;100.00;100080.75;4898075;29;20076;-83
2022/11/06 07:24:56;;;;;;;38.80;23.55;;;;;;;6.20;100.00;100091.00;4898220;29;20024;-83
2022/11/06 07:27:22;;;;;;;34.83;21.08;;;;;;;6.25;100.00;100096.91;4897822;29;20107;-83
2022/11/06 07:29:47;;;;;;;28.75;19.27;;;;;;;6.18;100.00;100094.47;4897841;29;20384;-83
2022/11/06 07:32:12;;;;;;;34.80;19.77;;;;;;;6.23;100.00;100096.06;4897685;29;20020;-83
2022/11/06 07:34:38;;;;;;;24.33;17.95;;;;;;;6.40;100.00;100087.94;4880768;29;20025;-83
2022/11/06 07:37:07;;;;;;;25.40;18.48;;;;;;;6.66;100.00;100089.97;4880806;29;20063;-83
2022/11/06 07:39:33;;;;;;;25.27;17.90;;;;;;;6.84;100.00;100091.25;4897510;29;20021;-83
2022/11/06 07:41:58;;;;;;;20.38;16.35;;;;;;;6.92;100.00;100086.72;4880799;29;20047;-84
2022/11/06 07:44:23;;;;;;;21.70;15.23;;;;;;;7.17;100.00;100094.75;4880416;29;20028;-83
2022/11/06 07:46:49;;;;;;;22.60;16.00;;;;;;;7.38;100.00;100090.75;4880665;29;20024;-84
2022/11/06 07:49:17;;;;;;;24.38;16.52;;;;;;;7.57;100.00;100093.69;4897092;29;20032;-84
2022/11/06 07:51:43;;;;;;;28.55;17.27;;;;;;;7.68;100.00;100090.81;4880736;29;20043;-84
2022/11/06 07:54:12;;;;;;;21.20;15.95;;;;;;;7.72;100.00;100095.00;4896668;29;20353;-83
2022/11/06 07:56:37;;;;;;;24.45;15.93;;;;;;;7.65;100.00;100088.28;4897528;29;20024;-83
2022/11/06 07:59:03;;;;;;;22.85;15.82;;;;;;;7.78;100.00;100086.19;4880288;29;20035;-83
2022/11/06 08:01:29;;;;;;;23.50;14.55;;;;;;;7.87;100.00;100088.53;4897336;29;20414;-83
2022/11/06 08:03:54;;;;;;;20.73;13.88;;;;;;;7.94;99.94;100095.25;4897442;29;20040;-83
2022/11/06 08:06:20;;;;;;;18.50;13.18;;;;;;;7.83;99.87;100076.53;4897155;29;20476;-83
2022/11/06 08:08:45;;;;;;;22.77;15.05;;;;;;;7.91;100.00;100078.03;4897219;29;20036;-83
2022/11/06 08:11:11;;;;;;;23.73;14.52;;;;;;;7.84;99.34;100070.50;4880187;29;20024;-82
2022/11/06 08:13:37;;;;;;;21.42;14.70;;;;;;;7.83;99.79;100079.97;4897198;29;20047;-83
2022/11/06 08:16:08;;;;;;;22.42;14.20;;;;;;;7.90;100.00;100086.69;4897093;29;20021;-83
2022/11/06 08:18:33;;;;;;;22.95;14.13;;;;;;;7.87;100.00;100091.13;4896958;29;20127;-83
2022/11/06 08:20:59;;;;;;;24.30;14.82;;;;;;;7.83;100.00;100095.53;4897276;29;20549;-83
2022/11/06 08:23:25;;;;;;;19.42;13.55;;;;;;;7.89;100.00;100085.00;4879902;29;20376;-83
2022/11/06 08:25:58;;;;;;;22.67;15.90;;;;;;;7.81;100.00;100097.34;4880186;29;20029;-83
2022/11/06 08:28:25;;;;;;;21.27;14.32;;;;;;;7.65;100.00;100094.31;4879933;29;20736;-83
2022/11/06 08:30:51;;;;;;;21.00;14.40;;;;;;;7.79;100.00;100093.06;4896809;29;20346;-83
2022/11/06 08:33:17;;;;;;;20.52;13.43;;;;;;;7.86;100.00;100079.06;4880099;29;20176;-82
2022/11/06 08:35:42;;;;;;;18.35;13.13;;;;;;;7.99;100.00;100081.25;4880193;29;20024;-83
2022/11/06 08:38:08;;;;;;;21.52;13.25;;;;;;;8.06;100.00;100084.53;4879879;29;20095;-83
2022/11/06 08:40:35;;;;;;;19.02;13.50;;;;;;;7.97;100.00;100097.75;4896922;29;20040;-83
2022/11/06 08:43:03;;;;;;;23.30;13.30;;;;;;;7.85;100.00;100083.41;4896924;29;20346;-83
2022/11/06 08:45:28;;;;;;;25.15;13.77;;;;;;;7.69;100.00;100082.97;4896498;29;20044;-82
2022/11/06 08:47:54;;;;;;;24.05;13.02;;;;;;;7.66;100.00;100098.59;4897160;29;20024;-83
2022/11/06 08:50:19;;;;;;;19.60;13.30;;;;;;;7.63;100.00;100090.09;4896417;29;20039;-82
2022/11/06 08:52:44;;;;;;;20.92;12.52;;;;;;;7.59;100.00;100089.31;4879914;29;20025;-82
2022/11/06 08:55:10;;;;;;;18.08;11.60;;;;;;;7.51;100.00;100080.91;4896700;29;20036;-84
2022/11/06 08:57:35;;;;;;;20.88;12.82;;;;;;;7.52;100.00;100090.38;4896718;29;20027;-82
2022/11/06 09:00:03;;;;;;;19.05;11.02;;;;;;;7.58;100.00;100087.59;4879850;29;20044;-83
2022/11/06 09:02:28;;;;;;;17.60;10.82;;;;;;;7.60;100.00;100069.41;4879893;29;20372;-85
2022/11/06 09:04:54;;;;;;;21.60;11.55;;;;;;;7.69;100.00;100082.13;4881095;29;20037;-85
2022/11/06 09:07:19;;;;;;;19.23;11.75;;;;;;;7.70;100.00;100083.81;4883330;29;20028;-86
2022/11/06 09:09:45;;;;;;;20.63;12.65;;;;;;;7.72;100.00;100084.63;4883419;29;20028;-86
2022/11/06 09:12:10;;;;;;;19.75;11.77;;;;;;;7.71;100.00;100090.69;4883258;29;20028;-84
2022/11/06 09:14:36;;;;;;;17.80;11.38;;;;;;;7.77;100.00;100084.50;4883252;29;20032;-84
2022/11/06 09:17:01;;;;;;;23.35;11.60;;;;;;;7.78;100.00;100071.50;4883591;29;20024;-85
2022/11/06 09:19:26;;;;;;;17.60;11.90;;;;;;;7.92;100.00;100079.75;4883179;29;20048;-85
2022/11/06 09:21:52;;;;;;;16.42;11.80;;;;;;;8.00;100.00;100082.09;4883098;29;20040;-85
2022/11/06 09:24:17;;;;;;;19.85;12.20;;;;;;;8.08;100.00;100084.47;4882911;29;20582;-84
2022/11/06 09:26:43;;;;;;;16.17;11.50;;;;;;;8.04;100.00;100062.09;4883189;29;20481;-84
2022/11/06 09:29:08;;;;;;;19.52;11.20;;;;;;;8.19;100.00;100077.22;4882793;29;20120;-85
2022/11/06 09:31:34;;;;;;;17.75;12.00;;;;;;;8.22;100.00;100079.72;4900238;29;20041;-84
2022/11/06 09:33:59;;;;;;;20.48;12.68;;;;;;;8.31;100.00;100087.25;4900179;29;20464;-84
2022/11/06 09:36:25;;;;;;;16.33;11.15;;;;;;;8.30;100.00;100085.53;4899893;29;20043;-85
2022/11/06 09:38:50;;;;;;;18.15;11.35;;;;;;;8.32;100.00;100090.69;4883057;29;20028;-84
2022/11/06 09:41:29;;;;;;;17.85;11.05;;;;;;;8.33;100.00;100088.03;4882722;29;20124;-85
2022/11/06 09:44:36;;;;;;;18.67;11.88;;;;;;;8.42;100.00;100089.53;4882770;29;20039;-84
2022/11/06 09:47:13;;;;;;;20.80;12.32;;;;;;;8.39;100.00;100080.09;4826210;29;20037;-84
2022/11/06 09:49:46;;;;;;;18.38;11.98;;;;;;;8.50;100.00;100090.97;4826252;29;20367;-84
2022/11/06 09:52:20;;;;;;;23.17;11.88;;;;;;;8.49;100.00;100088.44;4841381;29;20069;-84
2022/11/06 09:54:49;;;;;;;21.38;10.93;;;;;;;8.55;100.00;100087.41;4825950;29;20505;-84
2022/11/06 09:57:20;;;;;;;19.33;12.13;;;;;;;8.60;100.00;100091.56;4825775;29;20033;-85
2022/11/06 09:59:47;;;;;;;19.08;11.38;;;;;;;8.55;100.00;100084.81;4825962;29;20030;-85
2022/11/06 10:02:25;;;;;;;19.33;10.77;;;;;;;8.58;100.00;100076.91;4804613;29;20038;-85
2022/11/06 10:05:04;;;;;;;18.42;11.18;;;;;;;8.49;100.00;100073.72;4786743;30;20043;-85
2022/11/06 10:07:34;;;;;;;17.95;11.07;;;;;;;8.53;100.00;100071.03;4786484;30;20047;-85
2022/11/06 10:10:03;;;;;;;17.80;11.93;;;;;;;8.62;100.00;100075.94;4786481;30;20039;-85
2022/11/06 10:12:50;;;;;;;17.27;10.98;;;;;;;8.55;100.00;100057.09;4786386;29;20519;-85
2022/11/06 10:15:19;;;;;;;22.58;12.15;;;;;;;8.62;100.00;100060.34;4771478;30;20100;-85
2022/11/06 10:17:56;;;;;;;23.88;13.93;;;;;;;8.72;100.00;100075.59;4786016;29;20070;-84
2022/11/06 10:20:42;;;;;;;27.08;13.45;;;;;;;8.70;100.00;100073.94;4786192;29;20170;-85
2022/11/06 10:23:22;;;;;;;19.55;13.27;;;;;;;8.69;100.00;100056.66;4793049;29;20055;-85
2022/11/06 10:26:12;;;;;;;22.30;12.43;;;;;;;8.81;100.00;100066.66;4825608;29;20089;-84
2022/11/06 10:28:52;;;;;;;17.27;13.40;;;;;;;8.82;100.00;100062.31;4825568;29;20038;-85
2022/11/06 10:31:40;;;;;;;25.77;14.88;;;;;;;8.70;100.00;100040.19;4825238;29;20049;-84
2022/11/06 10:34:20;;;;;;;24.33;14.80;;;;;;;8.73;100.00;100050.47;4841082;29;20049;-86
2022/11/06 10:36:53;;;;;;;24.03;13.80;;;;;;;8.80;100.00;100048.50;4825389;29;20038;-85
2022/11/06 10:39:27;;;;;;;24.48;13.85;;;;;;;8.78;100.00;100034.75;4840396;29;20026;-84
2022/11/06 10:42:18;;;;;;;21.85;12.65;;;;;;;8.79;100.00;100026.88;4843982;29;20485;-84
2022/11/06 10:44:48;;;;;;;19.13;12.57;;;;;;;8.83;100.00;100028.47;4881067;29;20028;-84
2022/11/06 10:47:28;;;;;;;25.48;14.10;;;;;;;8.86;100.00;100024.94;4898546;29;20021;-85
2022/11/06 10:49:56;;;;;;;25.65;15.27;;;;;;;8.89;100.00;100009.22;4881906;29;20410;-85
2022/11/06 10:52:33;;;;;;;25.10;13.43;;;;;;;8.98;100.00;100015.00;4881386;29;20062;-85
2022/11/06 10:55:20;;;;;;;23.25;13.13;;;;;;;9.02;99.83;100009.66;4881770;29;20091;-86
2022/11/06 10:58:06;;;;;;;29.27;11.68;;;;;;;9.00;99.72;100002.78;4898620;29;20029;-85
2022/11/06 11:00:32;;;;;;;17.70;11.48;;;;;;;8.99;99.79;99990.69;4881325;29;20426;-85
2022/11/06 11:03:04;;;;;;;24.10;13.07;;;;;;;9.08;100.00;99999.91;4898281;29;20037;-89
2022/11/06 11:05:41;;;;;;;22.25;12.23;;;;;;;9.03;99.88;99978.44;4881693;29;20405;-85
2022/11/06 11:08:29;;;;;;;18.60;11.65;;;;;;;9.03;99.57;99968.06;4898476;29;20048;-87
2022/11/06 11:11:18;;;;;;;20.85;10.05;;;;;;;9.18;97.95;99979.66;4881117;29;20111;-85
2022/11/06 11:14:10;;;;;;;14.60;8.48;;;;;;;9.17;95.50;99971.00;4803817;29;20115;-86
2022/11/06 11:16:43;;;;;;;19.70;8.90;;;;;;;9.22;94.51;99966.47;4788368;29;20035;-82
2022/11/06 11:19:20;;;;;;;13.95;6.82;;;;;;;9.28;94.86;99967.19;4803662;29;20039;-82
2022/11/06 11:21:57;;;;;;;15.57;7.03;;;;;;;9.29;95.02;99950.69;4803460;29;20104;-82
2022/11/06 11:24:23;;;;;;;14.02;7.68;;;;;;;9.33;94.71;99953.13;4803303;29;20039;-82
2022/11/06 11:26:52;;;;;;;15.52;7.28;;;;;;;9.38;93.07;99953.78;4788371;29;20038;-82
2022/11/06 11:29:23;;;;;;;14.10;6.38;;;;;;;9.42;90.94;99944.97;4802244;29;20034;-82
2022/11/06 11:31:53;;;;;;;13.90;6.28;;;;;;;9.31;91.48;99918.50;4788291;29;20050;-82
2022/11/06 11:34:31;;;;;;;14.02;6.22;;;;;;;9.48;92.44;99933.47;4788162;29;20394;-82
2022/11/06 11:37:02;;;;;;;9.10;6.32;;;;;;;9.46;92.54;99928.34;4803329;29;20392;-82
2022/11/06 11:39:30;;;;;;;14.15;6.40;;;;;;;9.52;91.69;99923.81;4803192;29;20577;-85
2022/11/06 11:42:20;;;;;;;12.55;6.10;;;;;;;9.60;90.10;99929.59;4802743;29;20611;-86
2022/11/06 11:44:46;;;;;;;15.15;7.55;;;;;;;9.63;90.25;99919.06;4803174;29;20506;-83